sensor_id;sensor_type;location;lat;lon;timestamp;P1;durP1;ratioP1;P2;durP2;ratioP2
27893;SDS011;15240;50.812;4.792;2023-04-25T00:01:47;21.83;;;7.53;;
27893;SDS011;15240;50.812;4.792;2023-04-25T00:04:13;21.00;;;6.83;;
27893;SDS011;15240;50.812;4.792;2023-04-25T00:06:39;20.27;;;8.10;;
27893;SDS011;15240;50.812;4.792;2023-04-25T00:09:05;18.13;;;7.87;;
27893;SDS011;15240;50.812;4.792;2023-04-25T00:11:36;20.93;;;8.33;;
27893;SDS011;15240;50.812;4.792;2023-04-25T00:14:03;23.07;;;7.67;;
27893;SDS011;15240;50.812;4.792;2023-04-25T00:16:29;20.80;;;8.80;;
27893;SDS011;15240;50.812;4.792;2023-04-25T00:18:58;19.07;;;7.87;;
27893;SDS011;15240;50.812;4.792;2023-04-25T00:21:24;22.30;;;7.70;;
27893;SDS011;15240;50.812;4.792;2023-04-25T00:23:51;20.97;;;7.53;;
27893;SDS011;15240;50.812;4.792;2023-04-25T00:26:18;24.70;;;8.30;;
27893;SDS011;15240;50.812;4.792;2023-04-25T00:28:46;22.90;;;8.17;;
27893;SDS011;15240;50.812;4.792;2023-04-25T00:31:12;17.57;;;8.00;;
27893;SDS011;15240;50.812;4.792;2023-04-25T00:33:38;20.63;;;8.40;;
27893;SDS011;15240;50.812;4.792;2023-04-25T00:36:05;21.03;;;8.07;;
27893;SDS011;15240;50.812;4.792;2023-04-25T00:38:31;25.17;;;7.97;;
27893;SDS011;15240;50.812;4.792;2023-04-25T00:40:57;21.50;;;7.90;;
27893;SDS011;15240;50.812;4.792;2023-04-25T00:43:25;21.30;;;8.77;;
27893;SDS011;15240;50.812;4.792;2023-04-25T00:45:51;21.13;;;8.20;;
27893;SDS011;15240;50.812;4.792;2023-04-25T00:48:18;21.27;;;8.23;;
27893;SDS011;15240;50.812;4.792;2023-04-25T00:50:47;19.47;;;8.70;;
27893;SDS011;15240;50.812;4.792;2023-04-25T00:53:14;22.10;;;8.43;;
27893;SDS011;15240;50.812;4.792;2023-04-25T00:55:40;25.93;;;9.13;;
27893;SDS011;15240;50.812;4.792;2023-04-25T00:58:06;25.80;;;8.70;;
27893;SDS011;15240;50.812;4.792;2023-04-25T01:00:33;18.03;;;8.20;;
27893;SDS011;15240;50.812;4.792;2023-04-25T01:03:00;18.37;;;8.37;;
27893;SDS011;15240;50.812;4.792;2023-04-25T01:05:27;23.10;;;7.50;;
27893;SDS011;15240;50.812;4.792;2023-04-25T01:07:53;20.87;;;8.13;;
27893;SDS011;15240;50.812;4.792;2023-04-25T01:10:19;23.23;;;8.47;;
27893;SDS011;15240;50.812;4.792;2023-04-25T01:12:45;20.23;;;7.93;;
27893;SDS011;15240;50.812;4.792;2023-04-25T01:15:12;20.23;;;8.13;;
27893;SDS011;15240;50.812;4.792;2023-04-25T01:17:38;24.93;;;8.30;;
27893;SDS011;15240;50.812;4.792;2023-04-25T01:20:06;19.97;;;7.87;;
27893;SDS011;15240;50.812;4.792;2023-04-25T01:22:34;24.87;;;8.97;;
27893;SDS011;15240;50.812;4.792;2023-04-25T01:25:01;27.27;;;8.77;;
27893;SDS011;15240;50.812;4.792;2023-04-25T01:27:27;24.97;;;8.37;;
27893;SDS011;15240;50.812;4.792;2023-04-25T01:29:54;26.37;;;8.50;;
27893;SDS011;15240;50.812;4.792;2023-04-25T01:32:21;24.97;;;8.63;;
27893;SDS011;15240;50.812;4.792;2023-04-25T01:34:47;23.27;;;9.03;;
27893;SDS011;15240;50.812;4.792;2023-04-25T01:37:13;25.17;;;9.53;;
27893;SDS011;15240;50.812;4.792;2023-04-25T01:39:40;27.73;;;8.90;;
27893;SDS011;15240;50.812;4.792;2023-04-25T01:42:06;27.43;;;9.20;;
27893;SDS011;15240;50.812;4.792;2023-04-25T01:44:33;24.87;;;8.60;;
27893;SDS011;15240;50.812;4.792;2023-04-25T01:46:59;22.77;;;9.23;;
27893;SDS011;15240;50.812;4.792;2023-04-25T01:49:25;20.93;;;8.40;;
27893;SDS011;15240;50.812;4.792;2023-04-25T01:51:51;20.47;;;6.93;;
27893;SDS011;15240;50.812;4.792;2023-04-25T01:54:17;19.40;;;7.07;;
27893;SDS011;15240;50.812;4.792;2023-04-25T01:56:49;20.47;;;8.10;;
27893;SDS011;15240;50.812;4.792;2023-04-25T01:59:15;18.00;;;7.20;;
27893;SDS011;15240;50.812;4.792;2023-04-25T02:01:41;22.83;;;7.97;;
27893;SDS011;15240;50.812;4.792;2023-04-25T02:04:07;24.27;;;8.20;;
27893;SDS011;15240;50.812;4.792;2023-04-25T02:06:33;18.07;;;7.70;;
27893;SDS011;15240;50.812;4.792;2023-04-25T02:08:59;26.37;;;8.67;;
27893;SDS011;15240;50.812;4.792;2023-04-25T02:11:25;25.53;;;8.27;;
27893;SDS011;15240;50.812;4.792;2023-04-25T02:13:51;23.33;;;8.97;;
27893;SDS011;15240;50.812;4.792;2023-04-25T02:16:17;24.63;;;9.30;;
27893;SDS011;15240;50.812;4.792;2023-04-25T02:18:43;26.17;;;9.97;;
27893;SDS011;15240;50.812;4.792;2023-04-25T02:21:10;26.93;;;9.83;;
27893;SDS011;15240;50.812;4.792;2023-04-25T02:23:37;29.40;;;10.10;;
27893;SDS011;15240;50.812;4.792;2023-04-25T02:26:03;28.70;;;9.80;;
27893;SDS011;15240;50.812;4.792;2023-04-25T02:28:29;28.60;;;10.47;;
27893;SDS011;15240;50.812;4.792;2023-04-25T02:30:56;23.53;;;9.50;;
27893;SDS011;15240;50.812;4.792;2023-04-25T02:33:22;27.87;;;9.73;;
27893;SDS011;15240;50.812;4.792;2023-04-25T02:35:48;23.07;;;9.40;;
27893;SDS011;15240;50.812;4.792;2023-04-25T02:38:14;26.87;;;9.50;;
27893;SDS011;15240;50.812;4.792;2023-04-25T02:40:40;23.13;;;9.37;;
27893;SDS011;15240;50.812;4.792;2023-04-25T02:43:06;28.50;;;9.00;;
27893;SDS011;15240;50.812;4.792;2023-04-25T02:45:32;27.07;;;9.30;;
27893;SDS011;15240;50.812;4.792;2023-04-25T02:47:58;21.80;;;9.30;;
27893;SDS011;15240;50.812;4.792;2023-04-25T02:50:24;26.97;;;9.27;;
27893;SDS011;15240;50.812;4.792;2023-04-25T02:52:50;29.23;;;8.87;;
27893;SDS011;15240;50.812;4.792;2023-04-25T02:55:16;25.60;;;8.27;;
27893;SDS011;15240;50.812;4.792;2023-04-25T02:57:42;29.20;;;9.43;;
27893;SDS011;15240;50.812;4.792;2023-04-25T03:00:08;23.33;;;8.20;;
27893;SDS011;15240;50.812;4.792;2023-04-25T03:02:36;21.87;;;7.67;;
27893;SDS011;15240;50.812;4.792;2023-04-25T03:05:03;30.03;;;8.47;;
27893;SDS011;15240;50.812;4.792;2023-04-25T03:07:29;24.90;;;8.63;;
27893;SDS011;15240;50.812;4.792;2023-04-25T03:09:55;25.03;;;8.80;;
27893;SDS011;15240;50.812;4.792;2023-04-25T03:12:21;24.63;;;8.23;;
27893;SDS011;15240;50.812;4.792;2023-04-25T03:14:47;25.27;;;8.37;;
27893;SDS011;15240;50.812;4.792;2023-04-25T03:17:13;24.53;;;7.90;;
27893;SDS011;15240;50.812;4.792;2023-04-25T03:19:40;23.87;;;8.47;;
27893;SDS011;15240;50.812;4.792;2023-04-25T03:22:06;26.17;;;7.83;;
27893;SDS011;15240;50.812;4.792;2023-04-25T03:24:32;28.20;;;8.20;;
27893;SDS011;15240;50.812;4.792;2023-04-25T03:26:58;26.83;;;8.53;;
27893;SDS011;15240;50.812;4.792;2023-04-25T03:29:24;28.23;;;7.73;;
27893;SDS011;15240;50.812;4.792;2023-04-25T03:31:51;31.10;;;8.30;;
27893;SDS011;15240;50.812;4.792;2023-04-25T03:34:17;26.40;;;7.50;;
27893;SDS011;15240;50.812;4.792;2023-04-25T03:36:43;20.53;;;7.87;;
27893;SDS011;15240;50.812;4.792;2023-04-25T03:39:09;24.47;;;7.90;;
27893;SDS011;15240;50.812;4.792;2023-04-25T03:41:36;24.80;;;8.30;;
27893;SDS011;15240;50.812;4.792;2023-04-25T03:44:02;22.73;;;7.73;;
27893;SDS011;15240;50.812;4.792;2023-04-25T03:46:28;19.57;;;7.17;;
27893;SDS011;15240;50.812;4.792;2023-04-25T03:48:54;19.73;;;7.23;;
27893;SDS011;15240;50.812;4.792;2023-04-25T03:51:20;25.97;;;7.37;;
27893;SDS011;15240;50.812;4.792;2023-04-25T03:53:47;24.17;;;7.23;;
27893;SDS011;15240;50.812;4.792;2023-04-25T03:56:13;26.17;;;6.93;;
27893;SDS011;15240;50.812;4.792;2023-04-25T03:58:39;23.07;;;6.37;;
27893;SDS011;15240;50.812;4.792;2023-04-25T04:01:05;20.80;;;6.73;;
27893;SDS011;15240;50.812;4.792;2023-04-25T04:03:35;24.77;;;6.47;;
27893;SDS011;15240;50.812;4.792;2023-04-25T04:06:02;25.03;;;7.17;;
27893;SDS011;15240;50.812;4.792;2023-04-25T04:08:29;29.80;;;7.23;;
27893;SDS011;15240;50.812;4.792;2023-04-25T04:10:55;29.63;;;7.37;;
27893;SDS011;15240;50.812;4.792;2023-04-25T04:13:21;27.17;;;7.03;;
27893;SDS011;15240;50.812;4.792;2023-04-25T04:15:47;22.70;;;7.03;;
27893;SDS011;15240;50.812;4.792;2023-04-25T04:18:13;22.97;;;7.07;;
27893;SDS011;15240;50.812;4.792;2023-04-25T04:20:40;22.90;;;7.00;;
27893;SDS011;15240;50.812;4.792;2023-04-25T04:23:06;23.87;;;6.43;;
27893;SDS011;15240;50.812;4.792;2023-04-25T04:25:32;18.87;;;6.83;;
27893;SDS011;15240;50.812;4.792;2023-04-25T04:27:59;24.97;;;7.00;;
27893;SDS011;15240;50.812;4.792;2023-04-25T04:30:26;24.10;;;6.37;;
27893;SDS011;15240;50.812;4.792;2023-04-25T04:32:54;28.80;;;7.27;;
27893;SDS011;15240;50.812;4.792;2023-04-25T04:35:20;22.07;;;6.50;;
27893;SDS011;15240;50.812;4.792;2023-04-25T04:37:49;24.30;;;6.27;;
27893;SDS011;15240;50.812;4.792;2023-04-25T04:40:15;21.97;;;6.43;;
27893;SDS011;15240;50.812;4.792;2023-04-25T04:42:42;25.63;;;6.70;;
27893;SDS011;15240;50.812;4.792;2023-04-25T04:45:10;19.13;;;6.67;;
27893;SDS011;15240;50.812;4.792;2023-04-25T04:47:37;24.17;;;6.93;;
27893;SDS011;15240;50.812;4.792;2023-04-25T04:50:04;21.73;;;6.33;;
27893;SDS011;15240;50.812;4.792;2023-04-25T04:52:33;20.13;;;7.23;;
27893;SDS011;15240;50.812;4.792;2023-04-25T04:54:59;24.47;;;6.87;;
27893;SDS011;15240;50.812;4.792;2023-04-25T04:57:26;24.73;;;7.27;;
27893;SDS011;15240;50.812;4.792;2023-04-25T04:59:52;20.10;;;6.77;;
27893;SDS011;15240;50.812;4.792;2023-04-25T05:02:18;17.87;;;6.73;;
27893;SDS011;15240;50.812;4.792;2023-04-25T05:04:45;17.87;;;6.67;;
27893;SDS011;15240;50.812;4.792;2023-04-25T05:07:11;24.23;;;8.03;;
27893;SDS011;15240;50.812;4.792;2023-04-25T05:09:37;22.13;;;6.20;;
27893;SDS011;15240;50.812;4.792;2023-04-25T05:12:04;19.67;;;6.83;;
27893;SDS011;15240;50.812;4.792;2023-04-25T05:14:30;19.10;;;6.70;;
27893;SDS011;15240;50.812;4.792;2023-04-25T05:16:56;16.90;;;7.00;;
27893;SDS011;15240;50.812;4.792;2023-04-25T05:19:23;19.27;;;6.77;;
27893;SDS011;15240;50.812;4.792;2023-04-25T05:21:49;20.23;;;7.73;;
27893;SDS011;15240;50.812;4.792;2023-04-25T05:24:15;26.17;;;7.60;;
27893;SDS011;15240;50.812;4.792;2023-04-25T05:26:41;21.60;;;7.87;;
27893;SDS011;15240;50.812;4.792;2023-04-25T05:29:07;23.23;;;7.23;;
27893;SDS011;15240;50.812;4.792;2023-04-25T05:31:34;18.90;;;7.10;;
27893;SDS011;15240;50.812;4.792;2023-04-25T05:34:00;18.13;;;6.73;;
27893;SDS011;15240;50.812;4.792;2023-04-25T05:36:26;22.20;;;7.13;;
27893;SDS011;15240;50.812;4.792;2023-04-25T05:38:52;21.57;;;7.77;;
27893;SDS011;15240;50.812;4.792;2023-04-25T05:41:19;26.33;;;7.33;;
27893;SDS011;15240;50.812;4.792;2023-04-25T05:43:45;17.83;;;7.07;;
27893;SDS011;15240;50.812;4.792;2023-04-25T05:46:14;21.63;;;7.10;;
27893;SDS011;15240;50.812;4.792;2023-04-25T05:48:42;20.93;;;7.00;;
27893;SDS011;15240;50.812;4.792;2023-04-25T05:51:08;19.10;;;7.50;;
27893;SDS011;15240;50.812;4.792;2023-04-25T05:53:34;25.37;;;8.23;;
27893;SDS011;15240;50.812;4.792;2023-04-25T05:56:00;18.43;;;7.50;;
27893;SDS011;15240;50.812;4.792;2023-04-25T05:58:27;28.27;;;8.70;;
27893;SDS011;15240;50.812;4.792;2023-04-25T06:00:53;23.83;;;8.57;;
27893;SDS011;15240;50.812;4.792;2023-04-25T06:03:20;23.53;;;8.20;;
27893;SDS011;15240;50.812;4.792;2023-04-25T06:05:46;24.47;;;7.40;;
27893;SDS011;15240;50.812;4.792;2023-04-25T06:08:12;24.57;;;8.03;;
27893;SDS011;15240;50.812;4.792;2023-04-25T06:10:38;22.70;;;7.47;;
27893;SDS011;15240;50.812;4.792;2023-04-25T06:13:05;25.97;;;8.33;;
27893;SDS011;15240;50.812;4.792;2023-04-25T06:15:31;28.07;;;8.10;;
27893;SDS011;15240;50.812;4.792;2023-04-25T06:17:57;22.17;;;7.10;;
27893;SDS011;15240;50.812;4.792;2023-04-25T06:20:24;20.37;;;7.70;;
27893;SDS011;15240;50.812;4.792;2023-04-25T06:22:50;17.87;;;7.17;;
27893;SDS011;15240;50.812;4.792;2023-04-25T06:25:18;25.07;;;7.80;;
27893;SDS011;15240;50.812;4.792;2023-04-25T06:27:44;22.60;;;8.17;;
27893;SDS011;15240;50.812;4.792;2023-04-25T06:30:10;24.17;;;7.50;;
27893;SDS011;15240;50.812;4.792;2023-04-25T06:32:37;24.10;;;8.07;;
27893;SDS011;15240;50.812;4.792;2023-04-25T06:35:03;21.60;;;7.97;;
27893;SDS011;15240;50.812;4.792;2023-04-25T06:37:30;22.10;;;7.37;;
27893;SDS011;15240;50.812;4.792;2023-04-25T06:39:56;21.57;;;8.13;;
27893;SDS011;15240;50.812;4.792;2023-04-25T06:42:22;23.97;;;7.37;;
27893;SDS011;15240;50.812;4.792;2023-04-25T06:44:48;22.23;;;7.43;;
27893;SDS011;15240;50.812;4.792;2023-04-25T06:47:14;24.43;;;7.43;;
27893;SDS011;15240;50.812;4.792;2023-04-25T06:49:40;21.20;;;7.47;;
27893;SDS011;15240;50.812;4.792;2023-04-25T06:52:07;24.07;;;7.87;;
27893;SDS011;15240;50.812;4.792;2023-04-25T06:54:33;20.57;;;7.10;;
27893;SDS011;15240;50.812;4.792;2023-04-25T06:56:59;20.87;;;7.90;;
27893;SDS011;15240;50.812;4.792;2023-04-25T06:59:26;23.13;;;7.23;;
27893;SDS011;15240;50.812;4.792;2023-04-25T07:01:52;24.80;;;8.03;;
27893;SDS011;15240;50.812;4.792;2023-04-25T07:04:18;21.60;;;7.47;;
27893;SDS011;15240;50.812;4.792;2023-04-25T07:06:44;21.70;;;6.67;;
27893;SDS011;15240;50.812;4.792;2023-04-25T07:09:14;19.57;;;7.20;;
27893;SDS011;15240;50.812;4.792;2023-04-25T07:11:40;19.60;;;6.80;;
27893;SDS011;15240;50.812;4.792;2023-04-25T07:14:06;21.73;;;7.60;;
27893;SDS011;15240;50.812;4.792;2023-04-25T07:16:32;24.33;;;8.37;;
27893;SDS011;15240;50.812;4.792;2023-04-25T07:18:58;21.43;;;7.27;;
27893;SDS011;15240;50.812;4.792;2023-04-25T07:21:24;18.37;;;6.43;;
27893;SDS011;15240;50.812;4.792;2023-04-25T07:23:51;19.07;;;6.83;;
27893;SDS011;15240;50.812;4.792;2023-04-25T07:26:17;20.17;;;6.83;;
27893;SDS011;15240;50.812;4.792;2023-04-25T07:28:43;25.10;;;7.20;;
27893;SDS011;15240;50.812;4.792;2023-04-25T07:31:09;16.97;;;6.67;;
27893;SDS011;15240;50.812;4.792;2023-04-25T07:33:35;21.87;;;6.40;;
27893;SDS011;15240;50.812;4.792;2023-04-25T07:36:01;22.47;;;7.10;;
27893;SDS011;15240;50.812;4.792;2023-04-25T07:38:27;22.00;;;6.77;;
27893;SDS011;15240;50.812;4.792;2023-04-25T07:40:53;21.23;;;6.10;;
27893;SDS011;15240;50.812;4.792;2023-04-25T07:43:20;22.10;;;6.97;;
27893;SDS011;15240;50.812;4.792;2023-04-25T07:45:46;18.43;;;5.67;;
27893;SDS011;15240;50.812;4.792;2023-04-25T07:48:16;18.83;;;5.23;;
27893;SDS011;15240;50.812;4.792;2023-04-25T07:50:43;16.87;;;6.40;;
27893;SDS011;15240;50.812;4.792;2023-04-25T07:53:10;15.87;;;6.37;;
27893;SDS011;15240;50.812;4.792;2023-04-25T07:55:36;19.03;;;5.57;;
27893;SDS011;15240;50.812;4.792;2023-04-25T07:58:05;14.03;;;5.33;;
27893;SDS011;15240;50.812;4.792;2023-04-25T08:00:31;16.60;;;5.50;;
27893;SDS011;15240;50.812;4.792;2023-04-25T08:02:58;17.93;;;5.23;;
27893;SDS011;15240;50.812;4.792;2023-04-25T08:05:24;15.10;;;5.03;;
27893;SDS011;15240;50.812;4.792;2023-04-25T08:07:51;19.20;;;5.33;;
27893;SDS011;15240;50.812;4.792;2023-04-25T08:10:18;21.83;;;5.30;;
27893;SDS011;15240;50.812;4.792;2023-04-25T08:12:44;24.20;;;5.17;;
27893;SDS011;15240;50.812;4.792;2023-04-25T08:15:10;20.47;;;5.33;;
27893;SDS011;15240;50.812;4.792;2023-04-25T08:17:39;16.40;;;5.40;;
27893;SDS011;15240;50.812;4.792;2023-04-25T08:20:06;22.13;;;6.63;;
27893;SDS011;15240;50.812;4.792;2023-04-25T08:22:33;18.60;;;5.80;;
27893;SDS011;15240;50.812;4.792;2023-04-25T08:25:00;21.30;;;5.50;;
27893;SDS011;15240;50.812;4.792;2023-04-25T08:27:26;17.07;;;5.30;;
27893;SDS011;15240;50.812;4.792;2023-04-25T08:29:52;20.07;;;5.23;;
27893;SDS011;15240;50.812;4.792;2023-04-25T08:32:18;16.43;;;4.53;;
27893;SDS011;15240;50.812;4.792;2023-04-25T08:34:46;17.73;;;4.97;;
27893;SDS011;15240;50.812;4.792;2023-04-25T08:37:12;16.13;;;5.33;;
27893;SDS011;15240;50.812;4.792;2023-04-25T08:39:38;18.40;;;6.07;;
27893;SDS011;15240;50.812;4.792;2023-04-25T08:42:05;19.27;;;5.43;;
27893;SDS011;15240;50.812;4.792;2023-04-25T08:44:35;22.30;;;5.90;;
27893;SDS011;15240;50.812;4.792;2023-04-25T08:47:02;14.60;;;5.63;;
27893;SDS011;15240;50.812;4.792;2023-04-25T08:49:29;16.70;;;5.73;;
27893;SDS011;15240;50.812;4.792;2023-04-25T08:51:56;15.43;;;6.10;;
27893;SDS011;15240;50.812;4.792;2023-04-25T08:54:25;18.70;;;6.87;;
27893;SDS011;15240;50.812;4.792;2023-04-25T08:56:54;18.47;;;7.20;;
27893;SDS011;15240;50.812;4.792;2023-04-25T08:59:21;20.77;;;6.57;;
27893;SDS011;15240;50.812;4.792;2023-04-25T09:01:48;19.53;;;6.47;;
27893;SDS011;15240;50.812;4.792;2023-04-25T09:04:15;16.60;;;5.13;;
27893;SDS011;15240;50.812;4.792;2023-04-25T09:06:41;19.30;;;5.57;;
27893;SDS011;15240;50.812;4.792;2023-04-25T09:09:08;11.33;;;4.70;;
27893;SDS011;15240;50.812;4.792;2023-04-25T09:11:36;17.07;;;5.07;;
27893;SDS011;15240;50.812;4.792;2023-04-25T09:21:53;14.80;;;4.63;;
27893;SDS011;15240;50.812;4.792;2023-04-25T09:24:41;12.87;;;4.43;;
27893;SDS011;15240;50.812;4.792;2023-04-25T09:27:11;11.97;;;4.27;;
27893;SDS011;15240;50.812;4.792;2023-04-25T09:29:38;12.50;;;4.20;;
27893;SDS011;15240;50.812;4.792;2023-04-25T09:32:15;13.13;;;4.50;;
27893;SDS011;15240;50.812;4.792;2023-04-25T09:34:42;14.13;;;3.90;;
27893;SDS011;15240;50.812;4.792;2023-04-25T09:37:09;16.20;;;4.00;;
27893;SDS011;15240;50.812;4.792;2023-04-25T09:39:38;17.33;;;4.00;;
27893;SDS011;15240;50.812;4.792;2023-04-25T09:42:04;12.30;;;4.00;;
27893;SDS011;15240;50.812;4.792;2023-04-25T09:44:31;11.23;;;3.67;;
27893;SDS011;15240;50.812;4.792;2023-04-25T09:46:57;10.00;;;3.57;;
27893;SDS011;15240;50.812;4.792;2023-04-25T09:49:24;11.40;;;3.90;;
27893;SDS011;15240;50.812;4.792;2023-04-25T09:51:57;9.93;;;3.43;;
27893;SDS011;15240;50.812;4.792;2023-04-25T09:54:24;13.20;;;3.50;;
27893;SDS011;15240;50.812;4.792;2023-04-25T09:56:51;11.90;;;3.80;;
27893;SDS011;15240;50.812;4.792;2023-04-25T09:59:21;14.33;;;3.90;;
27893;SDS011;15240;50.812;4.792;2023-04-25T10:01:48;11.43;;;3.50;;
27893;SDS011;15240;50.812;4.792;2023-04-25T10:04:16;13.47;;;3.70;;
27893;SDS011;15240;50.812;4.792;2023-04-25T10:06:45;11.33;;;3.17;;
27893;SDS011;15240;50.812;4.792;2023-04-25T10:09:14;6.67;;;3.10;;
27893;SDS011;15240;50.812;4.792;2023-04-25T10:11:40;9.27;;;3.73;;
27893;SDS011;15240;50.812;4.792;2023-04-25T10:14:06;10.47;;;2.97;;
27893;SDS011;15240;50.812;4.792;2023-04-25T10:16:33;11.40;;;3.17;;
27893;SDS011;15240;50.812;4.792;2023-04-25T10:18:59;11.53;;;3.20;;
27893;SDS011;15240;50.812;4.792;2023-04-25T10:21:25;13.20;;;3.57;;
27893;SDS011;15240;50.812;4.792;2023-04-25T10:23:54;15.63;;;3.20;;
27893;SDS011;15240;50.812;4.792;2023-04-25T10:26:20;15.77;;;3.60;;
27893;SDS011;15240;50.812;4.792;2023-04-25T10:29:02;10.17;;;2.87;;
27893;SDS011;15240;50.812;4.792;2023-04-25T10:31:29;7.80;;;2.90;;
27893;SDS011;15240;50.812;4.792;2023-04-25T10:33:56;10.73;;;2.90;;
27893;SDS011;15240;50.812;4.792;2023-04-25T10:36:23;11.33;;;2.47;;
27893;SDS011;15240;50.812;4.792;2023-04-25T10:38:52;5.30;;;2.07;;
27893;SDS011;15240;50.812;4.792;2023-04-25T10:41:19;10.00;;;2.27;;
27893;SDS011;15240;50.812;4.792;2023-04-25T10:43:46;5.27;;;1.60;;
27893;SDS011;15240;50.812;4.792;2023-04-25T10:48:55;5.63;;;2.23;;
27893;SDS011;15240;50.812;4.792;2023-04-25T10:51:24;10.70;;;4.40;;
27893;SDS011;15240;50.812;4.792;2023-04-25T10:59:02;5.17;;;1.53;;
27893;SDS011;15240;50.812;4.792;2023-04-25T11:01:29;6.60;;;1.50;;
27893;SDS011;15240;50.812;4.792;2023-04-25T11:04:01;7.40;;;1.90;;
27893;SDS011;15240;50.812;4.792;2023-04-25T11:09:03;6.03;;;2.00;;
27893;SDS011;15240;50.812;4.792;2023-04-25T11:11:38;6.10;;;1.80;;
27893;SDS011;15240;50.812;4.792;2023-04-25T11:14:04;8.00;;;1.67;;
27893;SDS011;15240;50.812;4.792;2023-04-25T11:16:30;6.47;;;1.90;;
27893;SDS011;15240;50.812;4.792;2023-04-25T11:18:58;5.57;;;1.70;;
27893;SDS011;15240;50.812;4.792;2023-04-25T11:21:25;5.40;;;1.70;;
27893;SDS011;15240;50.812;4.792;2023-04-25T11:23:55;6.40;;;1.70;;
27893;SDS011;15240;50.812;4.792;2023-04-25T11:26:21;5.60;;;1.50;;
27893;SDS011;15240;50.812;4.792;2023-04-25T11:28:48;5.73;;;1.87;;
27893;SDS011;15240;50.812;4.792;2023-04-25T11:31:15;5.50;;;1.33;;
27893;SDS011;15240;50.812;4.792;2023-04-25T11:33:41;5.83;;;1.50;;
27893;SDS011;15240;50.812;4.792;2023-04-25T11:36:07;5.70;;;1.53;;
27893;SDS011;15240;50.812;4.792;2023-04-25T11:38:34;6.40;;;1.70;;
27893;SDS011;15240;50.812;4.792;2023-04-25T11:41:00;7.30;;;1.80;;
27893;SDS011;15240;50.812;4.792;2023-04-25T11:43:26;4.60;;;1.80;;
27893;SDS011;15240;50.812;4.792;2023-04-25T11:45:52;8.17;;;2.20;;
27893;SDS011;15240;50.812;4.792;2023-04-25T11:48:19;5.80;;;2.07;;
27893;SDS011;15240;50.812;4.792;2023-04-25T11:50:45;7.90;;;2.47;;
27893;SDS011;15240;50.812;4.792;2023-04-25T11:53:12;5.77;;;2.00;;
27893;SDS011;15240;50.812;4.792;2023-04-25T11:55:39;7.00;;;2.20;;
27893;SDS011;15240;50.812;4.792;2023-04-25T11:58:06;7.23;;;2.30;;
27893;SDS011;15240;50.812;4.792;2023-04-25T12:00:33;8.03;;;2.40;;
27893;SDS011;15240;50.812;4.792;2023-04-25T12:02:59;6.83;;;2.30;;
27893;SDS011;15240;50.812;4.792;2023-04-25T12:05:28;8.47;;;2.63;;
27893;SDS011;15240;50.812;4.792;2023-04-25T12:07:55;5.37;;;2.50;;
27893;SDS011;15240;50.812;4.792;2023-04-25T12:10:21;5.60;;;2.37;;
27893;SDS011;15240;50.812;4.792;2023-04-25T12:12:48;6.37;;;2.30;;
27893;SDS011;15240;50.812;4.792;2023-04-25T12:17:41;6.57;;;1.90;;
27893;SDS011;15240;50.812;4.792;2023-04-25T12:20:12;9.10;;;2.43;;
27893;SDS011;15240;50.812;4.792;2023-04-25T12:22:40;10.73;;;2.10;;
27893;SDS011;15240;50.812;4.792;2023-04-25T12:25:10;8.30;;;2.57;;
27893;SDS011;15240;50.812;4.792;2023-04-25T12:27:36;9.20;;;2.30;;
27893;SDS011;15240;50.812;4.792;2023-04-25T12:30:02;8.20;;;2.73;;
27893;SDS011;15240;50.812;4.792;2023-04-25T12:32:29;8.60;;;2.50;;
27893;SDS011;15240;50.812;4.792;2023-04-25T12:34:56;9.27;;;2.10;;
27893;SDS011;15240;50.812;4.792;2023-04-25T12:37:22;7.27;;;2.00;;
27893;SDS011;15240;50.812;4.792;2023-04-25T12:39:48;4.47;;;1.63;;
27893;SDS011;15240;50.812;4.792;2023-04-25T12:42:14;5.13;;;2.20;;
27893;SDS011;15240;50.812;4.792;2023-04-25T12:44:40;4.90;;;2.20;;
27893;SDS011;15240;50.812;4.792;2023-04-25T12:47:06;6.67;;;2.63;;
27893;SDS011;15240;50.812;4.792;2023-04-25T12:49:32;4.17;;;1.80;;
27893;SDS011;15240;50.812;4.792;2023-04-25T12:51:58;8.70;;;2.13;;
27893;SDS011;15240;50.812;4.792;2023-04-25T12:54:25;6.07;;;2.63;;
27893;SDS011;15240;50.812;4.792;2023-04-25T12:56:51;5.77;;;2.53;;
27893;SDS011;15240;50.812;4.792;2023-04-25T12:59:17;5.70;;;2.30;;
27893;SDS011;15240;50.812;4.792;2023-04-25T13:01:45;9.97;;;2.63;;
27893;SDS011;15240;50.812;4.792;2023-04-25T13:04:12;7.10;;;2.70;;
27893;SDS011;15240;50.812;4.792;2023-04-25T13:06:38;7.33;;;2.53;;
27893;SDS011;15240;50.812;4.792;2023-04-25T13:09:04;5.57;;;2.13;;
27893;SDS011;15240;50.812;4.792;2023-04-25T13:11:31;5.30;;;2.33;;
27893;SDS011;15240;50.812;4.792;2023-04-25T13:13:57;6.40;;;1.83;;
27893;SDS011;15240;50.812;4.792;2023-04-25T13:16:23;6.07;;;2.27;;
27893;SDS011;15240;50.812;4.792;2023-04-25T13:18:49;5.27;;;1.80;;
27893;SDS011;15240;50.812;4.792;2023-04-25T13:21:15;4.70;;;1.70;;
27893;SDS011;15240;50.812;4.792;2023-04-25T13:23:42;5.43;;;1.57;;
27893;SDS011;15240;50.812;4.792;2023-04-25T13:26:09;5.57;;;1.70;;
27893;SDS011;15240;50.812;4.792;2023-04-25T13:28:35;5.30;;;1.80;;
27893;SDS011;15240;50.812;4.792;2023-04-25T13:31:01;4.97;;;1.57;;
27893;SDS011;15240;50.812;4.792;2023-04-25T13:33:27;5.60;;;1.80;;
27893;SDS011;15240;50.812;4.792;2023-04-25T13:35:54;6.23;;;1.70;;
27893;SDS011;15240;50.812;4.792;2023-04-25T13:38:22;8.23;;;1.70;;
27893;SDS011;15240;50.812;4.792;2023-04-25T13:40:49;4.83;;;1.47;;
27893;SDS011;15240;50.812;4.792;2023-04-25T13:43:18;4.43;;;1.60;;
27893;SDS011;15240;50.812;4.792;2023-04-25T13:45:44;5.73;;;1.93;;
27893;SDS011;15240;50.812;4.792;2023-04-25T13:48:11;4.77;;;1.40;;
27893;SDS011;15240;50.812;4.792;2023-04-25T13:50:37;6.00;;;1.60;;
27893;SDS011;15240;50.812;4.792;2023-04-25T13:53:03;4.53;;;1.60;;
27893;SDS011;15240;50.812;4.792;2023-04-25T13:55:29;5.80;;;1.70;;
27893;SDS011;15240;50.812;4.792;2023-04-25T13:57:56;8.40;;;2.67;;
27893;SDS011;15240;50.812;4.792;2023-04-25T14:00:22;6.90;;;1.97;;
27893;SDS011;15240;50.812;4.792;2023-04-25T14:02:48;9.20;;;2.50;;
27893;SDS011;15240;50.812;4.792;2023-04-25T14:05:14;6.17;;;2.00;;
27893;SDS011;15240;50.812;4.792;2023-04-25T14:07:40;9.80;;;4.10;;
27893;SDS011;15240;50.812;4.792;2023-04-25T14:10:06;6.83;;;1.83;;
27893;SDS011;15240;50.812;4.792;2023-04-25T14:12:33;4.80;;;1.50;;
27893;SDS011;15240;50.812;4.792;2023-04-25T14:14:59;4.97;;;1.80;;
27893;SDS011;15240;50.812;4.792;2023-04-25T14:17:25;4.80;;;1.80;;
27893;SDS011;15240;50.812;4.792;2023-04-25T14:19:51;5.43;;;2.10;;
27893;SDS011;15240;50.812;4.792;2023-04-25T14:22:17;4.27;;;1.70;;
27893;SDS011;15240;50.812;4.792;2023-04-25T14:24:44;8.80;;;1.90;;
27893;SDS011;15240;50.812;4.792;2023-04-25T14:27:10;5.33;;;1.90;;
27893;SDS011;15240;50.812;4.792;2023-04-25T14:29:37;5.07;;;1.70;;
27893;SDS011;15240;50.812;4.792;2023-04-25T14:32:03;7.90;;;2.13;;
27893;SDS011;15240;50.812;4.792;2023-04-25T14:34:30;4.63;;;1.60;;
27893;SDS011;15240;50.812;4.792;2023-04-25T14:36:56;5.97;;;2.10;;
27893;SDS011;15240;50.812;4.792;2023-04-25T14:39:22;5.73;;;2.10;;
27893;SDS011;15240;50.812;4.792;2023-04-25T14:41:48;9.17;;;2.30;;
27893;SDS011;15240;50.812;4.792;2023-04-25T14:44:14;7.53;;;2.20;;
27893;SDS011;15240;50.812;4.792;2023-04-25T14:46:40;7.47;;;2.50;;
27893;SDS011;15240;50.812;4.792;2023-04-25T14:49:06;8.07;;;2.03;;
27893;SDS011;15240;50.812;4.792;2023-04-25T14:51:33;6.33;;;1.83;;
27893;SDS011;15240;50.812;4.792;2023-04-25T14:53:59;5.77;;;1.57;;
27893;SDS011;15240;50.812;4.792;2023-04-25T14:56:25;5.60;;;2.07;;